sensor_id;sensor_type;location;lat;lon;timestamp;pressure;altitude;pressure_sealevel;temperature;humidity
59831;BME280;45711;50.108;13.712;2024-02-16T00:01:00;98104.88;;;5.36;100.00
59831;BME280;45711;50.108;13.712;2024-02-16T00:03:26;98111.78;;;5.37;100.00
59831;BME280;45711;50.108;13.712;2024-02-16T00:05:52;98112.03;;;5.36;100.00
59831;BME280;45711;50.108;13.712;2024-02-16T00:08:19;98111.22;;;5.18;100.00
59831;BME280;45711;50.108;13.712;2024-02-16T00:10:45;98104.38;;;5.22;100.00
59831;BME280;45711;50.108;13.712;2024-02-16T00:13:11;98101.47;;;5.24;100.00
59831;BME280;45711;50.108;13.712;2024-02-16T00:15:37;98103.34;;;5.23;100.00
59831;BME280;45711;50.108;13.712;2024-02-16T00:18:04;98101.53;;;5.12;100.00
59831;BME280;45711;50.108;13.712;2024-02-16T00:20:29;98093.56;;;5.12;100.00
59831;BME280;45711;50.108;13.712;2024-02-16T00:22:56;98095.28;;;5.18;100.00
59831;BME280;45711;50.108;13.712;2024-02-16T00:25:23;98087.97;;;5.25;100.00
59831;BME280;45711;50.108;13.712;2024-02-16T00:27:49;98094.16;;;5.14;100.00
59831;BME280;45711;50.108;13.712;2024-02-16T00:30:16;98088.84;;;5.14;100.00
59831;BME280;45711;50.108;13.712;2024-02-16T00:32:43;98089.63;;;4.98;100.00
59831;BME280;45711;50.108;13.712;2024-02-16T00:35:10;98089.09;;;4.84;100.00
59831;BME280;45711;50.108;13.712;2024-02-16T00:37:36;98099.47;;;4.86;100.00
59831;BME280;45711;50.108;13.712;2024-02-16T00:40:03;98100.88;;;4.76;100.00
59831;BME280;45711;50.108;13.712;2024-02-16T00:42:31;98101.44;;;4.78;100.00
59831;BME280;45711;50.108;13.712;2024-02-16T00:44:56;98100.06;;;4.76;100.00
59831;BME280;45711;50.108;13.712;2024-02-16T00:47:22;98110.69;;;4.76;100.00
59831;BME280;45711;50.108;13.712;2024-02-16T00:49:49;98110.22;;;4.79;100.00
59831;BME280;45711;50.108;13.712;2024-02-16T00:52:14;98105.09;;;4.89;100.00
59831;BME280;45711;50.108;13.712;2024-02-16T00:54:40;98105.47;;;4.81;100.00
59831;BME280;45711;50.108;13.712;2024-02-16T00:57:05;98104.47;;;4.70;100.00
59831;BME280;45711;50.108;13.712;2024-02-16T00:59:32;98106.53;;;4.80;100.00
59831;BME280;45711;50.108;13.712;2024-02-16T01:01:58;98103.97;;;4.85;100.00
59831;BME280;45711;50.108;13.712;2024-02-16T01:04:23;98099.91;;;4.83;100.00
59831;BME280;45711;50.108;13.712;2024-02-16T01:06:49;98090.75;;;4.73;100.00
59831;BME280;45711;50.108;13.712;2024-02-16T01:09:15;98099.28;;;4.75;100.00
59831;BME280;45711;50.108;13.712;2024-02-16T01:11:41;98098.66;;;4.85;100.00
59831;BME280;45711;50.108;13.712;2024-02-16T01:14:07;98103.00;;;4.91;100.00
59831;BME280;45711;50.108;13.712;2024-02-16T01:16:34;98098.06;;;4.83;100.00
59831;BME280;45711;50.108;13.712;2024-02-16T01:19:01;98101.22;;;4.80;100.00
59831;BME280;45711;50.108;13.712;2024-02-16T01:21:26;98105.28;;;4.71;100.00
59831;BME280;45711;50.108;13.712;2024-02-16T01:23:52;98098.25;;;4.65;100.00
59831;BME280;45711;50.108;13.712;2024-02-16T01:26:17;98100.09;;;4.64;100.00
59831;BME280;45711;50.108;13.712;2024-02-16T01:28:43;98100.09;;;4.64;100.00
59831;BME280;45711;50.108;13.712;2024-02-16T01:31:09;98103.00;;;4.63;100.00
59831;BME280;45711;50.108;13.712;2024-02-16T01:33:36;98107.50;;;4.62;100.00
59831;BME280;45711;50.108;13.712;2024-02-16T01:36:02;98094.03;;;4.52;100.00
59831;BME280;45711;50.108;13.712;2024-02-16T01:38:28;98102.91;;;4.58;100.00
59831;BME280;45711;50.108;13.712;2024-02-16T01:40:54;98105.56;;;4.46;100.00
59831;BME280;45711;50.108;13.712;2024-02-16T01:43:19;98109.94;;;4.52;100.00
59831;BME280;45711;50.108;13.712;2024-02-16T01:45:45;98106.13;;;4.48;100.00
59831;BME280;45711;50.108;13.712;2024-02-16T01:48:11;98106.13;;;4.48;100.00
59831;BME280;45711;50.108;13.712;2024-02-16T01:50:38;98101.31;;;4.45;100.00
59831;BME280;45711;50.108;13.712;2024-02-16T01:53:04;98104.06;;;4.50;100.00
59831;BME280;45711;50.108;13.712;2024-02-16T01:55:29;98098.75;;;4.62;100.00
59831;BME280;45711;50.108;13.712;2024-02-16T01:57:56;98082.41;;;4.53;100.00
59831;BME280;45711;50.108;13.712;2024-02-16T02:00:23;98071.38;;;4.44;100.00
59831;BME280;45711;50.108;13.712;2024-02-16T02:02:49;98079.19;;;4.39;100.00
59831;BME280;45711;50.108;13.712;2024-02-16T02:05:15;98077.47;;;4.45;100.00
59831;BME280;45711;50.108;13.712;2024-02-16T02:07:42;98076.78;;;4.38;100.00
59831;BME280;45711;50.108;13.712;2024-02-16T02:10:08;98085.78;;;4.37;100.00
59831;BME280;45711;50.108;13.712;2024-02-16T02:12:34;98080.69;;;4.35;100.00
59831;BME280;45711;50.108;13.712;2024-02-16T02:15:00;98090.28;;;4.36;100.00
59831;BME280;45711;50.108;13.712;2024-02-16T02:17:25;98089.78;;;4.39;100.00
59831;BME280;45711;50.108;13.712;2024-02-16T02:19:51;98075.19;;;4.37;100.00
59831;BME280;45711;50.108;13.712;2024-02-16T02:22:18;98082.09;;;4.38;100.00
59831;BME280;45711;50.108;13.712;2024-02-16T02:24:44;98087.53;;;4.31;100.00
59831;BME280;45711;50.108;13.712;2024-02-16T02:27:11;98087.19;;;4.27;100.00
59831;BME280;45711;50.108;13.712;2024-02-16T02:29:36;98087.03;;;4.34;100.00
59831;BME280;45711;50.108;13.712;2024-02-16T02:32:02;98079.91;;;4.35;100.00
59831;BME280;45711;50.108;13.712;2024-02-16T02:34:29;98071.50;;;4.38;100.00
59831;BME280;45711;50.108;13.712;2024-02-16T02:36:54;98062.84;;;4.42;100.00
59831;BME280;45711;50.108;13.712;2024-02-16T02:39:21;98059.03;;;4.50;100.00
59831;BME280;45711;50.108;13.712;2024-02-16T02:41:47;98066.88;;;4.45;100.00
59831;BME280;45711;50.108;13.712;2024-02-16T02:44:12;98055.91;;;4.53;100.00
59831;BME280;45711;50.108;13.712;2024-02-16T02:46:38;98049.47;;;4.49;100.00
59831;BME280;45711;50.108;13.712;2024-02-16T02:49:04;98049.13;;;4.45;100.00
59831;BME280;45711;50.108;13.712;2024-02-16T02:51:29;98044.88;;;4.44;100.00
59831;BME280;45711;50.108;13.712;2024-02-16T02:53:55;98041.63;;;4.42;100.00
59831;BME280;45711;50.108;13.712;2024-02-16T02:56:22;98045.34;;;4.41;100.00
59831;BME280;45711;50.108;13.712;2024-02-16T02:58:47;98038.53;;;4.45;100.00
59831;BME280;45711;50.108;13.712;2024-02-16T03:01:13;98046.38;;;4.40;100.00
59831;BME280;45711;50.108;13.712;2024-02-16T03:03:39;98042.59;;;4.36;100.00
59831;BME280;45711;50.108;13.712;2024-02-16T03:06:05;98041.28;;;4.39;100.00
59831;BME280;45711;50.108;13.712;2024-02-16T03:08:31;98041.19;;;4.34;100.00
59831;BME280;45711;50.108;13.712;2024-02-16T03:10:56;98043.50;;;4.30;100.00
59831;BME280;45711;50.108;13.712;2024-02-16T03:13:27;98049.25;;;4.39;100.00
59831;BME280;45711;50.108;13.712;2024-02-16T03:15:52;98057.00;;;4.28;100.00
59831;BME280;45711;50.108;13.712;2024-02-16T03:18:18;98060.00;;;4.20;100.00
59831;BME280;45711;50.108;13.712;2024-02-16T03:20:43;98062.91;;;4.19;100.00
59831;BME280;45711;50.108;13.712;2024-02-16T03:23:11;98067.84;;;4.27;100.00
59831;BME280;45711;50.108;13.712;2024-02-16T03:25:36;98065.63;;;4.36;100.00
59831;BME280;45711;50.108;13.712;2024-02-16T03:28:02;98062.06;;;4.30;100.00
59831;BME280;45711;50.108;13.712;2024-02-16T03:30:29;98073.84;;;4.22;100.00
59831;BME280;45711;50.108;13.712;2024-02-16T03:32:55;98070.16;;;4.23;100.00
59831;BME280;45711;50.108;13.712;2024-02-16T03:35:20;98071.84;;;4.29;100.00
59831;BME280;45711;50.108;13.712;2024-02-16T03:37:46;98072.91;;;4.28;100.00
59831;BME280;45711;50.108;13.712;2024-02-16T03:40:12;98071.94;;;4.35;100.00
59831;BME280;45711;50.108;13.712;2024-02-16T03:42:38;98067.59;;;4.28;100.00
59831;BME280;45711;50.108;13.712;2024-02-16T03:45:04;98071.63;;;4.31;100.00
59831;BME280;45711;50.108;13.712;2024-02-16T03:47:31;98070.94;;;4.36;100.00
59831;BME280;45711;50.108;13.712;2024-02-16T03:49:56;98073.91;;;4.39;100.00
59831;BME280;45711;50.108;13.712;2024-02-16T03:52:22;98079.78;;;4.41;100.00
59831;BME280;45711;50.108;13.712;2024-02-16T03:54:47;98091.63;;;4.39;100.00
59831;BME280;45711;50.108;13.712;2024-02-16T03:57:14;98076.78;;;4.38;100.00
59831;BME280;45711;50.108;13.712;2024-02-16T03:59:41;98084.88;;;4.31;100.00
59831;BME280;45711;50.108;13.712;2024-02-16T04:02:07;98086.94;;;4.29;100.00
59831;BME280;45711;50.108;13.712;2024-02-16T04:04:34;98077.16;;;4.29;100.00
59831;BME280;45711;50.108;13.712;2024-02-16T04:06:59;98093.50;;;4.38;100.00
59831;BME280;45711;50.108;13.712;2024-02-16T04:09:25;98082.44;;;4.41;100.00
59831;BME280;45711;50.108;13.712;2024-02-16T04:11:51;98086.78;;;4.47;100.00
59831;BME280;45711;50.108;13.712;2024-02-16T04:14:16;98084.38;;;4.46;100.00
59831;BME280;45711;50.108;13.712;2024-02-16T04:16:42;98081.72;;;4.46;100.00
59831;BME280;45711;50.108;13.712;2024-02-16T04:19:08;98087.13;;;4.51;100.00
59831;BME280;45711;50.108;13.712;2024-02-16T04:21:35;98080.69;;;4.47;100.00
59831;BME280;45711;50.108;13.712;2024-02-16T04:24:00;98089.00;;;4.39;100.00
59831;BME280;45711;50.108;13.712;2024-02-16T04:26:26;98086.44;;;4.44;100.00
59831;BME280;45711;50.108;13.712;2024-02-16T04:28:52;98089.44;;;4.47;100.00
59831;BME280;45711;50.108;13.712;2024-02-16T04:31:17;98090.91;;;4.55;100.00
59831;BME280;45711;50.108;13.712;2024-02-16T04:33:43;98097.69;;;4.63;100.00
59831;BME280;45711;50.108;13.712;2024-02-16T04:36:08;98090.81;;;4.50;100.00
59831;BME280;45711;50.108;13.712;2024-02-16T04:38:35;98095.75;;;4.58;100.00
59831;BME280;45711;50.108;13.712;2024-02-16T04:41:01;98081.28;;;4.49;100.00
59831;BME280;45711;50.108;13.712;2024-02-16T04:43:26;98085.84;;;4.53;100.00
59831;BME280;45711;50.108;13.712;2024-02-16T04:45:52;98099.00;;;4.48;100.00
59831;BME280;45711;50.108;13.712;2024-02-16T04:48:19;98097.03;;;4.44;100.00
59831;BME280;45711;50.108;13.712;2024-02-16T04:50:45;98090.81;;;4.50;100.00
59831;BME280;45711;50.108;13.712;2024-02-16T04:53:10;98098.16;;;4.60;100.00
59831;BME280;45711;50.108;13.712;2024-02-16T04:55:37;98095.50;;;4.60;100.00
59831;BME280;45711;50.108;13.712;2024-02-16T04:58:03;98083.50;;;4.69;100.00
59831;BME280;45711;50.108;13.712;2024-02-16T05:00:34;98090.56;;;4.63;100.00
59831;BME280;45711;50.108;13.712;2024-02-16T05:02:59;98092.34;;;4.74;100.00
59831;BME280;45711;50.108;13.712;2024-02-16T05:05:25;98078.78;;;4.71;100.00
59831;BME280;45711;50.108;13.712;2024-02-16T05:07:51;98080.63;;;4.70;100.00
59831;BME280;45711;50.108;13.712;2024-02-16T05:10:16;98086.13;;;4.69;100.00
59831;BME280;45711;50.108;13.712;2024-02-16T05:12:43;98085.69;;;4.72;100.00
59831;BME280;45711;50.108;13.712;2024-02-16T05:15:09;98082.22;;;4.71;100.00
59831;BME280;45711;50.108;13.712;2024-02-16T05:17:34;98074.97;;;4.67;100.00
59831;BME280;45711;50.108;13.712;2024-02-16T05:20:00;98080.94;;;4.74;100.00
59831;BME280;45711;50.108;13.712;2024-02-16T05:22:25;98078.44;;;4.67;100.00
59831;BME280;45711;50.108;13.712;2024-02-16T05:24:51;98085.94;;;4.70;100.00
59831;BME280;45711;50.108;13.712;2024-02-16T05:27:17;98091.22;;;4.70;100.00
59831;BME280;45711;50.108;13.712;2024-02-16T05:29:45;98086.47;;;4.72;100.00
59831;BME280;45711;50.108;13.712;2024-02-16T05:32:10;98092.41;;;4.63;100.00
59831;BME280;45711;50.108;13.712;2024-02-16T05:34:38;98085.50;;;4.62;100.00
59831;BME280;45711;50.108;13.712;2024-02-16T05:37:04;98100.09;;;4.64;100.00
59831;BME280;45711;50.108;13.712;2024-02-16T05:39:31;98100.19;;;4.69;100.00
59831;BME280;45711;50.108;13.712;2024-02-16T05:41:57;98102.28;;;4.67;100.00
59831;BME280;45711;50.108;13.712;2024-02-16T05:44:23;98097.22;;;4.66;100.00
59831;BME280;45711;50.108;13.712;2024-02-16T05:46:49;98095.50;;;4.60;100.00
59831;BME280;45711;50.108;13.712;2024-02-16T05:49:15;98092.50;;;4.68;100.00
59831;BME280;45711;50.108;13.712;2024-02-16T05:51:49;98091.91;;;4.66;100.00
59831;BME280;45711;50.108;13.712;2024-02-16T05:54:37;98090.66;;;4.68;100.00
59831;BME280;45711;50.108;13.712;2024-02-16T05:57:04;98095.25;;;4.73;100.00
59831;BME280;45711;50.108;13.712;2024-02-16T05:59:29;98096.84;;;4.74;100.00
59831;BME280;45711;50.108;13.712;2024-02-16T06:01:56;98090.19;;;4.71;100.00
59831;BME280;45711;50.108;13.712;2024-02-16T06:04:23;98097.34;;;4.71;100.00
59831;BME280;45711;50.108;13.712;2024-02-16T06:06:49;98097.44;;;4.64;100.00
59831;BME280;45711;50.108;13.712;2024-02-16T06:09:15;98102.28;;;4.67;100.00
59831;BME280;45711;50.108;13.712;2024-02-16T06:11:40;98101.53;;;4.55;100.00
59831;BME280;45711;50.108;13.712;2024-02-16T06:14:06;98109.56;;;4.60;100.00
59831;BME280;45711;50.108;13.712;2024-02-16T06:16:31;98113.94;;;4.66;100.00
59831;BME280;45711;50.108;13.712;2024-02-16T06:19:00;98115.09;;;4.70;100.00
59831;BME280;45711;50.108;13.712;2024-02-16T06:21:26;98119.91;;;4.73;100.00
59831;BME280;45711;50.108;13.712;2024-02-16T06:23:51;98122.09;;;4.76;100.00
59831;BME280;45711;50.108;13.712;2024-02-16T06:26:17;98117.84;;;4.75;100.00
59831;BME280;45711;50.108;13.712;2024-02-16T06:28:42;98115.75;;;4.66;100.00
59831;BME280;45711;50.108;13.712;2024-02-16T06:31:08;98121.41;;;4.69;100.00
59831;BME280;45711;50.108;13.712;2024-02-16T06:33:33;98114.97;;;4.65;100.00
59831;BME280;45711;50.108;13.712;2024-02-16T06:36:00;98119.00;;;4.68;100.00
59831;BME280;45711;50.108;13.712;2024-02-16T06:38:26;98124.81;;;4.53;100.00
59831;BME280;45711;50.108;13.712;2024-02-16T06:40:51;98137.31;;;4.69;100.00
59831;BME280;45711;50.108;13.712;2024-02-16T06:43:17;98134.44;;;4.71;100.00
59831;BME280;45711;50.108;13.712;2024-02-16T06:45:42;98133.50;;;4.77;100.00
59831;BME280;45711;50.108;13.712;2024-02-16T06:48:08;98137.53;;;4.79;100.00
59831;BME280;45711;50.108;13.712;2024-02-16T06:50:34;98134.75;;;4.74;100.00
59831;BME280;45711;50.108;13.712;2024-02-16T06:53:01;98128.91;;;4.72;100.00
59831;BME280;45711;50.108;13.712;2024-02-16T06:55:26;98145.16;;;4.76;100.00
59831;BME280;45711;50.108;13.712;2024-02-16T06:57:52;98150.00;;;4.79;100.00
59831;BME280;45711;50.108;13.712;2024-02-16T07:00:18;98150.53;;;4.81;100.00
59831;BME280;45711;50.108;13.712;2024-02-16T07:02:45;98147.66;;;4.83;100.00
59831;BME280;45711;50.108;13.712;2024-02-16T07:05:11;98149.59;;;4.87;100.00
59831;BME280;45711;50.108;13.712;2024-02-16T07:07:37;98144.63;;;4.91;100.00
59831;BME280;45711;50.108;13.712;2024-02-16T07:10:05;98150.53;;;4.81;100.00
59831;BME280;45711;50.108;13.712;2024-02-16T07:12:31;98145.00;;;4.83;100.00
59831;BME280;45711;50.108;13.712;2024-02-16T07:14:59;98147.28;;;4.91;100.00
59831;BME280;45711;50.108;13.712;2024-02-16T07:17:24;98148.28;;;5.01;100.00
59831;BME280;45711;50.108;13.712;2024-02-16T07:19:50;98152.91;;;5.06;100.00
59831;BME280;45711;50.108;13.712;2024-02-16T07:22:16;98140.19;;;5.08;100.00
59831;BME280;45711;50.108;13.712;2024-02-16T07:24:41;98150.31;;;5.11;100.00
59831;BME280;45711;50.108;13.712;2024-02-16T07:27:08;98144.25;;;4.99;100.00
59831;BME280;45711;50.108;13.712;2024-02-16T07:29:34;98133.13;;;4.85;100.00
59831;BME280;45711;50.108;13.712;2024-02-16T07:32:04;98141.50;;;4.94;100.00
59831;BME280;45711;50.108;13.712;2024-02-16T07:34:30;98140.47;;;4.95;100.00
59831;BME280;45711;50.108;13.712;2024-02-16T07:36:55;98139.25;;;5.14;100.00
59831;BME280;45711;50.108;13.712;2024-02-16T07:39:22;98138.66;;;5.12;100.00
59831;BME280;45711;50.108;13.712;2024-02-16T07:41:49;98137.53;;;5.08;100.00
59831;BME280;45711;50.108;13.712;2024-02-16T07:44:15;98132.94;;;5.03;100.00
59831;BME280;45711;50.108;13.712;2024-02-16T07:46:41;98129.66;;;4.96;100.00
59831;BME280;45711;50.108;13.712;2024-02-16T07:49:07;98124.28;;;4.79;100.00
59831;BME280;45711;50.108;13.712;2024-02-16T07:51:32;98126.56;;;4.88;100.00
59831;BME280;45711;50.108;13.712;2024-02-16T07:53:58;98125.16;;;4.85;100.00
59831;BME280;45711;50.108;13.712;2024-02-16T07:56:23;98132.50;;;4.95;100.00
59831;BME280;45711;50.108;13.712;2024-02-16T07:58:49;98138.34;;;5.09;100.00
59831;BME280;45711;50.108;13.712;2024-02-16T08:01:16;98131.28;;;5.14;100.00
59831;BME280;45711;50.108;13.712;2024-02-16T08:03:41;98132.81;;;5.10;100.00
59831;BME280;45711;50.108;13.712;2024-02-16T08:06:07;98129.38;;;5.26;100.00
59831;BME280;45711;50.108;13.712;2024-02-16T08:08:33;98130.56;;;5.19;100.00
59831;BME280;45711;50.108;13.712;2024-02-16T08:10:58;98126.53;;;5.16;100.00
59831;BME280;45711;50.108;13.712;2024-02-16T08:13:24;98144.69;;;5.36;100.00
59831;BME280;45711;50.108;13.712;2024-02-16T08:15:49;98148.38;;;5.52;100.00
59831;BME280;45711;50.108;13.712;2024-02-16T08:18:18;98148.63;;;5.50;100.00
59831;BME280;45711;50.108;13.712;2024-02-16T08:20:45;98144.47;;;5.54;100.00
59831;BME280;45711;50.108;13.712;2024-02-16T08:23:10;98147.03;;;5.49;100.00
59831;BME280;45711;50.108;13.712;2024-02-16T08:25:36;98143.63;;;5.37;100.00
59831;BME280;45711;50.108;13.712;2024-02-16T08:28:02;98151.03;;;5.52;100.00
59831;BME280;45711;50.108;13.712;2024-02-16T08:30:28;98151.69;;;5.59;100.00
59831;BME280;45711;50.108;13.712;2024-02-16T08:32:53;98154.91;;;5.61;100.00
59831;BME280;45711;50.108;13.712;2024-02-16T08:35:20;98156.13;;;5.53;100.00
59831;BME280;45711;50.108;13.712;2024-02-16T08:37:46;98165.88;;;5.65;100.00
59831;BME280;45711;50.108;13.712;2024-02-16T08:40:12;98165.53;;;5.61;100.00
59831;BME280;45711;50.108;13.712;2024-02-16T08:42:39;98164.19;;;5.59;100.00
59831;BME280;45711;50.108;13.712;2024-02-16T08:45:05;98167.59;;;5.42;100.00
59831;BME280;45711;50.108;13.712;2024-02-16T08:47:31;98157.16;;;5.36;100.00
59831;BME280;45711;50.108;13.712;2024-02-16T08:49:56;98162.25;;;5.25;100.00
59831;BME280;45711;50.108;13.712;2024-02-16T08:52:23;98163.97;;;5.32;100.00
59831;BME280;45711;50.108;13.712;2024-02-16T08:54:49;98160.75;;;5.29;100.00
59831;BME280;45711;50.108;13.712;2024-02-16T08:57:15;98151.25;;;5.34;100.00
59831;BME280;45711;50.108;13.712;2024-02-16T08:59:40;98154.66;;;5.46;100.00
59831;BME280;45711;50.108;13.712;2024-02-16T09:02:06;98149.78;;;5.54;100.00
59831;BME280;45711;50.108;13.712;2024-02-16T09:04:31;98153.09;;;5.62;100.00
59831;BME280;45711;50.108;13.712;2024-02-16T09:06:57;98144.41;;;5.66;100.00
59831;BME280;45711;50.108;13.712;2024-02-16T09:09:24;98151.31;;;5.67;100.00
59831;BME280;45711;50.108;13.712;2024-02-16T09:11:50;98157.44;;;5.85;100.00
59831;BME280;45711;50.108;13.712;2024-02-16T09:14:16;98146.88;;;5.73;100.00
59831;BME280;45711;50.108;13.712;2024-02-16T09:16:42;98146.97;;;5.78;100.00
59831;BME280;45711;50.108;13.712;2024-02-16T09:19:07;98152.03;;;5.79;100.00
59831;BME280;45711;50.108;13.712;2024-02-16T09:21:33;98165.63;;;5.83;100.00
59831;BME280;45711;50.108;13.712;2024-02-16T09:23:59;98156.84;;;5.83;100.00
59831;BME280;45711;50.108;13.712;2024-02-16T09:26:28;98157.19;;;5.86;100.00
59831;BME280;45711;50.108;13.712;2024-02-16T09:28:58;98151.41;;;5.89;100.00
59831;BME280;45711;50.108;13.712;2024-02-16T09:31:24;98158.91;;;5.92;100.00
59831;BME280;45711;50.108;13.712;2024-02-16T09:33:50;98154.81;;;6.01;100.00
59831;BME280;45711;50.108;13.712;2024-02-16T09:36:17;98155.53;;;5.97;100.00
59831;BME280;45711;50.108;13.712;2024-02-16T09:38:43;98161.66;;;5.97;100.00
59831;BME280;45711;50.108;13.712;2024-02-16T09:41:08;98154.94;;;6.12;100.00
59831;BME280;45711;50.108;13.712;2024-02-16T09:43:35;98153.16;;;6.17;100.00
59831;BME280;45711;50.108;13.712;2024-02-16T09:46:05;98152.53;;;6.10;100.00
59831;BME280;45711;50.108;13.712;2024-02-16T09:48:30;98158.00;;;6.20;100.00
59831;BME280;45711;50.108;13.712;2024-02-16T09:50:57;98158.81;;;6.21;100.00
59831;BME280;45711;50.108;13.712;2024-02-16T09:53:27;98163.63;;;6.24;100.00
59831;BME280;45711;50.108;13.712;2024-02-16T09:55:53;98170.88;;;6.28;100.00
59831;BME280;45711;50.108;13.712;2024-02-16T09:58:19;98165.56;;;6.28;100.00
59831;BME280;45711;50.108;13.712;2024-02-16T10:00:51;98170.22;;;6.38;100.00
59831;BME280;45711;50.108;13.712;2024-02-16T10:03:24;98169.41;;;6.38;100.00
59831;BME280;45711;50.108;13.712;2024-02-16T10:05:50;98173.34;;;6.35;100.00
59831;BME280;45711;50.108;13.712;2024-02-16T10:08:16;98167.88;;;6.42;100.00
59831;BME280;45711;50.108;13.712;2024-02-16T10:10:42;98165.47;;;6.40;100.00
59831;BME280;45711;50.108;13.712;2024-02-16T10:13:08;98164.63;;;6.40;100.00
59831;BME280;45711;50.108;13.712;2024-02-16T10:15:34;98171.59;;;6.41;100.00
59831;BME280;45711;50.108;13.712;2024-02-16T10:18:01;98166.06;;;6.47;100.00
59831;BME280;45711;50.108;13.712;2024-02-16T10:20:28;98168.41;;;6.44;100.00
59831;BME280;45711;50.108;13.712;2024-02-16T10:23:07;98166.41;;;6.51;100.00
59831;BME280;45711;50.108;13.712;2024-02-16T10:25:33;98161.06;;;6.51;100.00
59831;BME280;45711;50.108;13.712;2024-02-16T10:28:03;98170.97;;;6.55;100.00
59831;BME280;45711;50.108;13.712;2024-02-16T10:30:30;98168.63;;;6.59;100.00
59831;BME280;45711;50.108;13.712;2024-02-16T10:32:57;98171.56;;;6.58;100.00
59831;BME280;45711;50.108;13.712;2024-02-16T10:35:25;98171.28;;;6.59;100.00
59831;BME280;45711;50.108;13.712;2024-02-16T10:37:54;98174.00;;;6.64;100.00
59831;BME280;45711;50.108;13.712;2024-02-16T10:40:22;98174.50;;;6.61;100.00
59831;BME280;45711;50.108;13.712;2024-02-16T10:42:49;98176.19;;;6.67;100.00
59831;BME280;45711;50.108;13.712;2024-02-16T10:45:15;98183.06;;;6.85;100.00
59831;BME280;45711;50.108;13.712;2024-02-16T10:47:41;98170.88;;;6.89;100.00
59831;BME280;45711;50.108;13.712;2024-02-16T10:50:07;98164.75;;;6.89;100.00
59831;BME280;45711;50.108;13.712;2024-02-16T10:52:39;98164.00;;;6.93;100.00
59831;BME280;45711;50.108;13.712;2024-02-16T10:55:07;98155.81;;;7.00;100.00
59831;BME280;45711;50.108;13.712;2024-02-16T10:57:35;98157.56;;;6.89;100.00
59831;BME280;45711;50.108;13.712;2024-02-16T11:00:07;98156.44;;;7.07;100.00
59831;BME280;45711;50.108;13.712;2024-02-16T11:02:57;98153.22;;;7.05;100.00
59831;BME280;45711;50.108;13.712;2024-02-16T11:05:34;98152.13;;;7.01;100.00
59831;BME280;45711;50.108;13.712;2024-02-16T11:08:02;98154.03;;;7.05;100.00
59831;BME280;45711;50.108;13.712;2024-02-16T11:10:28;98151.75;;;6.92;100.00
59831;BME280;45711;50.108;13.712;2024-02-16T11:12:54;98149.66;;;6.94;100.00
59831;BME280;45711;50.108;13.712;2024-02-16T11:15:27;98146.84;;;7.06;100.00
59831;BME280;45711;50.108;13.712;2024-02-16T11:17:56;98153.09;;;6.95;100.00
59831;BME280;45711;50.108;13.712;2024-02-16T11:20:23;98151.97;;;7.13;100.00
59831;BME280;45711;50.108;13.712;2024-02-16T11:22:51;98141.91;;;7.15;100.00
59831;BME280;45711;50.108;13.712;2024-02-16T11:25:18;98157.69;;;6.99;100.00
59831;BME280;45711;50.108;13.712;2024-02-16T11:27:44;98149.63;;;7.16;100.00
59831;BME280;45711;50.108;13.712;2024-02-16T11:30:11;98155.75;;;7.17;100.00
59831;BME280;45711;50.108;13.712;2024-02-16T11:32:36;98147.72;;;7.12;100.00
59831;BME280;45711;50.108;13.712;2024-02-16T11:35:05;98140.84;;;7.16;100.00
59831;BME280;45711;50.108;13.712;2024-02-16T11:37:32;98148.69;;;7.27;100.00
59831;BME280;45711;50.108;13.712;2024-02-16T11:39:57;98140.25;;;7.14;100.00
59831;BME280;45711;50.108;13.712;2024-02-16T11:42:24;98140.09;;;7.20;100.00
59831;BME280;45711;50.108;13.712;2024-02-16T11:44:51;98140.13;;;7.25;100.00
59831;BME280;45711;50.108;13.712;2024-02-16T11:47:19;98130.22;;;6.94;100.00
59831;BME280;45711;50.108;13.712;2024-02-16T11:49:45;98135.22;;;6.90;100.00
59831;BME280;45711;50.108;13.712;2024-02-16T11:52:10;98131.56;;;7.18;100.00
59831;BME280;45711;50.108;13.712;2024-02-16T11:54:36;98125.81;;;7.04;100.00
59831;BME280;45711;50.108;13.712;2024-02-16T11:57:02;98134.31;;;7.28;100.00
59831;BME280;45711;50.108;13.712;2024-02-16T11:59:29;98135.06;;;7.24;100.00
59831;BME280;45711;50.108;13.712;2024-02-16T12:01:57;98128.69;;;7.25;100.00
59831;BME280;45711;50.108;13.712;2024-02-16T12:04:24;98127.38;;;7.27;100.00
59831;BME280;45711;50.108;13.712;2024-02-16T12:06:52;98130.09;;;7.33;100.00
59831;BME280;45711;50.108;13.712;2024-02-16T12:09:18;98132.06;;;7.15;100.00
59831;BME280;45711;50.108;13.712;2024-02-16T12:11:44;98129.22;;;7.00;100.00
59831;BME280;45711;50.108;13.712;2024-02-16T12:14:10;98131.38;;;7.03;100.00
59831;BME280;45711;50.108;13.712;2024-02-16T12:16:46;98143.72;;;7.36;100.00
59831;BME280;45711;50.108;13.712;2024-02-16T12:19:11;98140.97;;;7.31;100.00
59831;BME280;45711;50.108;13.712;2024-02-16T12:21:38;98140.03;;;7.15;100.00
59831;BME280;45711;50.108;13.712;2024-02-16T12:24:04;98139.41;;;7.08;100.00
59831;BME280;45711;50.108;13.712;2024-02-16T12:26:30;98137.97;;;7.22;100.00
59831;BME280;45711;50.108;13.712;2024-02-16T12:28:55;98145.50;;;7.30;100.00
59831;BME280;45711;50.108;13.712;2024-02-16T12:31:21;98147.25;;;7.47;100.00
59831;BME280;45711;50.108;13.712;2024-02-16T12:33:48;98142.03;;;7.30;100.00
59831;BME280;45711;50.108;13.712;2024-02-16T12:36:14;98151.81;;;7.51;100.00
59831;BME280;45711;50.108;13.712;2024-02-16T12:38:40;98143.56;;;7.53;100.00
59831;BME280;45711;50.108;13.712;2024-02-16T12:41:05;98140.53;;;7.39;100.00
59831;BME280;45711;50.108;13.712;2024-02-16T12:43:31;98141.03;;;7.36;100.00
59831;BME280;45711;50.108;13.712;2024-02-16T12:45:59;98139.94;;;7.32;100.00